Gary Chicago International Airport
KGYY : now visible

Aeroporto :











RITROVATECI SU...

 
LOGIN :

Iscrizione | Disclaimer

   EN    FR    IT 

 









Sommario :    VFR   VFR Marginale   IFR   IFR Intensivo   IFR Molto Intensivo
Visibilità : 
Base nubi : 
>= 8 km
>= 3000ft
5 / 8 km
1000 / 3000 ft
1500m / 5 km
500 / 1000 ft
800 / 1500m
200 / 500 ft
< 800m
< 200 ft
Simboli :   Temporali  Nebbia  Neve Forte  Precipitazioni Forti  Vento > 20 kt







- Altitudine del aeroporto : 591 ft
- Codice IATA : GYY


KGYY - Gary Chicago International

ULTIMO METAR :
  • 201445Z 18004KT 10SM OVC200 27/24 A3001

METARs OBSOLETI :
  • 201345Z 18005KT 10SM OVC150 26/24 A3002

TAF KGYY
Valido dal 20 a 12 ore il 21 a 12 ore UTC


201132Z 2012/2112 15003KT P6SM SCT050 SCT250
FM201400 16003KT P6SM SCT020 BKN050 OVC100
FM201700 18006KT 5SM -SHRA VCTS SCT025 BKN050CB OVC100
TEMPO 2017/2019 3SM -TSRA BKN035CB
FM202000 18008KT P6SM SCT035 OVC100
FM202300 21007KT P6SM SCT040 SCT100
Nessun NOTAM noto per questo aeroporto.



MetMap, La meteo Aeronautica in un colpo d'occhio ! - Copyright ORBIFLY Dicembre 2007 - Disclaimer

ORBIFLY MET'MAP TEAM :

Programmazione e sviluppo : Alexandra Zaïnal
Concezione e sviluppo : Baudouin d'Aumeries
Co-Programmazione e sviluppo : Marc-Olivier Méhu
Supporto tecnico e logistico : Manuel Goepfert
Aiuto per la traduzione : Arnaldo La Scala

Contatto : metmap@orbifly.com




FONTI E CREDITI :

   NOAA       Earth
Advisory